Terminal Aerodrome Forecast
Issued by NWS

Home | Current Version | Previous Version | Text Only | Print | Product List | Glossary Off
Versions: 1 2 3 4 5 6 7 8 9 10 11 12 13 14 15

000
FTUS43 KICT 131700
TAFSLN
TAF
KSLN 131733Z 1318/1418 34025G33KT P6SM SCT009 OVC015
     FM140600 35025G35KT 4SM -SN BR SCT009 OVC015=

USA.gov is the U.S. government's official web portal to all federal, state and local government web resources and services.